createdAt,value
2023-01-25T00:00:45.983Z,7.90
2023-01-25T00:03:15.032Z,7.17
2023-01-25T00:05:42.749Z,7.67
2023-01-25T00:08:10.431Z,8.07
2023-01-25T00:10:38.107Z,8.53
2023-01-25T00:13:05.779Z,7.90
2023-01-25T00:15:33.425Z,7.53
2023-01-25T00:18:01.235Z,7.67
2023-01-25T00:20:30.226Z,7.60
2023-01-25T00:22:57.907Z,7.53
2023-01-25T00:25:25.557Z,6.97
2023-01-25T00:27:53.209Z,6.43
2023-01-25T00:30:20.846Z,7.93
2023-01-25T00:32:53.464Z,6.50
2023-01-25T00:35:22.229Z,7.27
2023-01-25T00:37:53.729Z,7.30
2023-01-25T00:40:21.423Z,7.63
2023-01-25T00:42:49.103Z,7.37
2023-01-25T00:45:17.546Z,7.97
2023-01-25T00:47:45.173Z,8.10
2023-01-25T00:50:12.871Z,7.93
2023-01-25T00:52:41.216Z,8.00
2023-01-25T00:55:11.042Z,8.17
2023-01-25T00:57:38.741Z,7.73
2023-01-25T01:00:07.720Z,8.80
2023-01-25T01:02:35.354Z,8.47
2023-01-25T01:05:03.103Z,7.97
2023-01-25T01:07:30.789Z,8.43
2023-01-25T01:10:00.231Z,8.40
2023-01-25T01:12:29.252Z,7.70
2023-01-25T01:14:57.054Z,8.33
2023-01-25T01:17:24.928Z,8.13
2023-01-25T01:19:52.577Z,7.43
2023-01-25T01:22:20.265Z,7.10
2023-01-25T01:24:49.221Z,7.40
2023-01-25T01:27:17.010Z,7.43
2023-01-25T01:29:46.053Z,7.27
2023-01-25T01:32:13.798Z,7.70
2023-01-25T01:34:41.498Z,7.60
2023-01-25T01:37:09.171Z,7.67
2023-01-25T01:39:36.812Z,8.00
2023-01-25T01:42:05.000Z,8.40
2023-01-25T01:44:47.294Z,8.03
2023-01-25T01:47:18.424Z,7.43
2023-01-25T01:49:51.288Z,7.13
2023-01-25T01:52:21.565Z,7.53
2023-01-25T01:54:51.679Z,7.33
2023-01-25T01:57:21.430Z,7.50
2023-01-25T01:59:52.414Z,8.03
2023-01-25T02:02:20.351Z,8.00
2023-01-25T02:04:49.830Z,7.60
2023-01-25T02:07:18.901Z,8.30
2023-01-25T02:09:46.735Z,8.27
2023-01-25T02:12:15.055Z,7.47
2023-01-25T02:14:52.076Z,8.37
2023-01-25T02:17:24.086Z,7.73
2023-01-25T02:19:55.642Z,8.17
2023-01-25T02:22:31.175Z,7.80
2023-01-25T02:25:06.029Z,8.20
2023-01-25T02:27:35.110Z,8.00
2023-01-25T02:30:03.431Z,7.67
2023-01-25T02:32:31.090Z,8.23
2023-01-25T02:34:58.766Z,7.97
2023-01-25T02:37:26.462Z,8.00
2023-01-25T02:39:54.236Z,8.47
2023-01-25T02:42:23.293Z,7.90
2023-01-25T02:44:51.852Z,7.90
2023-01-25T02:47:19.610Z,8.40
2023-01-25T02:49:47.225Z,7.97
2023-01-25T02:52:14.898Z,7.80
2023-01-25T02:54:43.630Z,8.63
2023-01-25T02:57:11.264Z,7.47
2023-01-25T02:59:40.362Z,8.03
2023-01-25T03:02:08.168Z,7.80
2023-01-25T03:04:35.797Z,7.43
2023-01-25T03:07:04.180Z,7.67
2023-01-25T03:09:31.845Z,7.73
2023-01-25T03:11:59.470Z,8.10
2023-01-25T03:14:27.102Z,7.57
2023-01-25T03:16:56.157Z,8.37
2023-01-25T03:19:23.768Z,8.80
2023-01-25T03:21:51.417Z,7.53
2023-01-25T03:24:19.104Z,7.73
2023-01-25T03:27:12.769Z,8.30
2023-01-25T03:29:40.826Z,7.57
2023-01-25T03:32:10.434Z,7.80
2023-01-25T03:34:38.117Z,8.27
2023-01-25T03:37:05.795Z,7.93
2023-01-25T03:39:33.462Z,8.93
2023-01-25T03:42:01.165Z,8.03
2023-01-25T03:44:28.888Z,7.97
2023-01-25T03:46:56.540Z,8.00
2023-01-25T03:49:25.684Z,7.73
2023-01-25T03:51:53.347Z,8.03
2023-01-25T03:54:20.968Z,7.57
2023-01-25T03:56:48.620Z,8.23
2023-01-25T03:59:16.258Z,7.80
2023-01-25T04:01:43.854Z,7.43
2023-01-25T04:04:11.528Z,7.83
2023-01-25T04:06:40.872Z,7.30
2023-01-25T04:09:08.992Z,7.27
2023-01-25T04:11:36.641Z,7.27
2023-01-25T04:14:04.290Z,7.13
2023-01-25T04:16:31.993Z,8.27
2023-01-25T04:18:59.637Z,6.97
2023-01-25T04:21:27.347Z,8.10
2023-01-25T04:23:56.414Z,8.00
2023-01-25T04:26:24.148Z,7.60
2023-01-25T04:28:51.823Z,8.03
2023-01-25T04:31:19.527Z,7.97
2023-01-25T04:33:47.341Z,7.50
2023-01-25T04:36:15.217Z,8.70
2023-01-25T04:38:45.531Z,8.00
2023-01-25T04:41:14.510Z,8.47
2023-01-25T04:43:42.237Z,8.20
2023-01-25T04:46:10.563Z,8.30
2023-01-25T04:48:38.289Z,8.83
2023-01-25T04:51:06.158Z,7.93
2023-01-25T04:53:33.797Z,8.10
2023-01-25T04:56:01.438Z,8.33
2023-01-25T04:58:30.448Z,9.00
2023-01-25T05:01:01.523Z,8.60
2023-01-25T05:03:29.225Z,8.70
2023-01-25T05:05:56.862Z,8.73
2023-01-25T05:08:25.957Z,8.27
2023-01-25T05:10:53.661Z,8.37
2023-01-25T05:13:21.282Z,7.97
2023-01-25T05:15:50.273Z,9.03
2023-01-25T05:18:17.877Z,7.37
2023-01-25T05:20:45.540Z,7.90
2023-01-25T05:23:13.259Z,8.63
2023-01-25T05:25:58.206Z,7.87
2023-01-25T05:28:25.848Z,7.90
2023-01-25T05:30:54.967Z,8.40
2023-01-25T05:33:22.671Z,8.40
2023-01-25T05:35:50.324Z,9.10
2023-01-25T05:38:17.949Z,7.93
2023-01-25T05:40:45.552Z,8.23
2023-01-25T05:43:13.164Z,8.50
2023-01-25T05:45:41.078Z,7.97
2023-01-25T05:48:10.199Z,8.70
2023-01-25T05:50:37.869Z,8.37
2023-01-25T05:53:05.484Z,7.83
2023-01-25T05:55:33.164Z,8.17
2023-01-25T05:58:00.774Z,7.67
2023-01-25T06:00:28.575Z,7.13
2023-01-25T06:02:56.878Z,7.70
2023-01-25T06:05:26.121Z,6.87
2023-01-25T06:07:53.800Z,7.90
2023-01-25T06:10:21.469Z,7.77
2023-01-25T06:12:49.079Z,8.13
2023-01-25T06:15:16.820Z,8.00
2023-01-25T06:17:44.451Z,9.30
2023-01-25T06:20:12.821Z,8.97
2023-01-25T06:22:41.864Z,8.23
2023-01-25T06:25:10.738Z,8.33
2023-01-25T06:27:38.616Z,8.30
2023-01-25T06:30:07.747Z,7.47
2023-01-25T06:32:35.423Z,7.73
2023-01-25T06:35:03.072Z,7.43
2023-01-25T06:37:30.685Z,7.93
2023-01-25T06:39:59.651Z,8.10
2023-01-25T06:42:27.463Z,8.93
2023-01-25T06:44:55.322Z,8.33
2023-01-25T06:47:22.956Z,7.70
2023-01-25T06:49:50.661Z,8.57
2023-01-25T07:07:22.363Z,9.13
2023-01-25T07:09:50.001Z,8.13
2023-01-25T07:12:19.538Z,7.70
2023-01-25T07:14:49.521Z,8.90
2023-01-25T07:17:17.165Z,8.70
2023-01-25T07:19:44.805Z,8.00
2023-01-25T07:22:12.579Z,8.10
2023-01-25T07:24:40.329Z,8.33
2023-01-25T07:27:07.959Z,7.80
2023-01-25T07:29:35.586Z,8.03
2023-01-25T07:32:06.697Z,8.10
2023-01-25T07:34:34.427Z,8.30
2023-01-25T07:37:02.072Z,7.50
2023-01-25T07:39:29.728Z,7.27
2023-01-25T07:41:57.490Z,7.67
2023-01-25T07:44:25.220Z,7.83
2023-01-25T07:46:54.416Z,7.30
2023-01-25T07:49:23.453Z,7.80
2023-01-25T07:51:51.156Z,8.27
2023-01-25T07:54:18.854Z,8.10
2023-01-25T07:56:46.535Z,8.93
2023-01-25T07:59:14.363Z,8.83
2023-01-25T08:01:42.317Z,8.13
2023-01-25T08:04:10.375Z,8.30
2023-01-25T08:06:39.883Z,8.40
2023-01-25T08:09:10.006Z,8.67
2023-01-25T08:11:37.989Z,8.67
2023-01-25T08:14:13.618Z,8.80
2023-01-25T08:16:45.190Z,8.47
2023-01-25T08:19:33.131Z,8.60
2023-01-25T08:22:02.599Z,7.53
2023-01-25T08:24:30.447Z,7.53
2023-01-25T08:26:58.179Z,7.63
2023-01-25T08:29:27.961Z,6.87
2023-01-25T08:31:55.710Z,7.77
2023-01-25T08:34:23.472Z,6.80
2023-01-25T08:39:21.235Z,6.53
2023-01-25T08:41:49.020Z,6.53
2023-01-25T08:44:16.856Z,6.77
2023-01-25T08:46:45.777Z,6.70
2023-01-25T08:49:13.474Z,6.50
2023-01-25T08:51:41.087Z,6.40
2023-01-25T08:54:11.311Z,6.80
2023-01-25T08:56:41.297Z,6.87
2023-01-25T08:59:10.490Z,6.57
2023-01-25T09:01:38.183Z,6.67
2023-01-25T09:04:06.299Z,6.93
2023-01-25T09:06:36.904Z,6.70
2023-01-25T09:09:05.198Z,6.07
2023-01-25T09:11:34.945Z,6.17
2023-01-25T09:14:04.091Z,5.87
2023-01-25T09:16:33.944Z,5.97
2023-01-25T09:19:03.644Z,6.03
2023-01-25T09:21:31.459Z,5.90
2023-01-25T09:24:07.844Z,6.13
2023-01-25T09:26:37.619Z,5.43
2023-01-25T09:29:08.206Z,5.50
2023-01-25T09:31:36.677Z,5.93
2023-01-25T09:34:04.727Z,5.40
2023-01-25T09:36:32.424Z,5.23
2023-01-25T09:39:00.242Z,5.40
2023-01-25T09:41:40.978Z,5.40
2023-01-25T09:44:28.896Z,5.10
2023-01-25T09:46:58.098Z,4.67
2023-01-25T09:49:46.907Z,5.00
2023-01-25T09:52:37.537Z,4.43
2023-01-25T09:55:14.209Z,5.20
2023-01-25T09:57:44.084Z,5.10
2023-01-25T10:00:17.851Z,4.97
2023-01-25T10:02:48.910Z,4.77
2023-01-25T10:05:20.902Z,5.10
2023-01-25T10:07:56.789Z,4.40
2023-01-25T10:10:29.336Z,4.77
2023-01-25T10:12:59.758Z,5.37
2023-01-25T10:18:23.022Z,4.80
2023-01-25T10:20:53.148Z,4.27
2023-01-25T10:23:30.875Z,4.00
2023-01-25T10:26:00.006Z,4.00
2023-01-25T10:28:46.291Z,4.60
2023-01-25T10:31:19.329Z,4.60
2023-01-25T10:33:49.580Z,4.63
2023-01-25T10:36:19.413Z,4.80
2023-01-25T10:38:49.051Z,4.43
2023-01-25T10:41:20.760Z,4.27
2023-01-25T10:44:08.554Z,4.17
2023-01-25T10:46:36.473Z,3.83
2023-01-25T10:49:19.023Z,4.37
2023-01-25T10:51:46.717Z,3.90
2023-01-25T10:54:16.104Z,3.90
2023-01-25T10:56:45.255Z,3.70
2023-01-25T10:59:19.588Z,4.30
2023-01-25T11:01:47.312Z,3.93
2023-01-25T11:04:31.388Z,3.53
2023-01-25T11:06:59.860Z,3.27
2023-01-25T11:09:35.996Z,3.70
2023-01-25T11:12:05.780Z,3.30
2023-01-25T11:14:34.525Z,3.80
2023-01-25T11:17:04.709Z,3.90
2023-01-25T11:19:36.457Z,3.37
2023-01-25T11:22:06.404Z,4.00
2023-01-25T11:24:35.852Z,3.30
2023-01-25T11:27:17.255Z,3.60
2023-01-25T11:29:47.087Z,3.47
2023-01-25T11:32:21.480Z,3.43
2023-01-25T11:34:51.351Z,3.27
2023-01-25T11:37:30.589Z,3.57
2023-01-25T11:40:06.863Z,3.00
2023-01-25T11:42:39.078Z,3.10
2023-01-25T11:45:38.025Z,3.40
2023-01-25T11:48:20.160Z,3.30
2023-01-25T11:50:54.453Z,4.30
2023-01-25T11:53:31.983Z,4.07
2023-01-25T11:56:06.025Z,3.60
2023-01-25T11:58:50.159Z,3.60
2023-01-25T12:01:22.893Z,3.60
2023-01-25T12:04:17.764Z,3.40
2023-01-25T12:06:58.396Z,3.50
2023-01-25T12:09:33.148Z,3.10
2023-01-25T12:12:10.364Z,3.50
2023-01-25T12:14:51.444Z,3.20
2023-01-25T12:17:26.231Z,3.47
2023-01-25T12:20:08.184Z,3.27
2023-01-25T12:22:50.517Z,3.57
2023-01-25T12:25:23.831Z,3.00
2023-01-25T12:28:02.542Z,3.00
2023-01-25T12:30:39.999Z,3.20
2023-01-25T12:33:14.630Z,3.03
2023-01-25T12:35:44.593Z,3.20
2023-01-25T12:38:16.957Z,2.90
2023-01-25T12:40:49.801Z,3.43
2023-01-25T12:43:20.487Z,3.13
2023-01-25T12:45:50.211Z,3.23
2023-01-25T12:48:20.583Z,3.83
2023-01-25T12:50:52.850Z,3.30
2023-01-25T12:53:24.937Z,3.17
2023-01-25T12:55:53.629Z,3.20
2023-01-25T12:58:36.979Z,3.20
2023-01-25T13:01:12.817Z,2.93
2023-01-25T13:03:51.220Z,3.00
2023-01-25T13:06:23.438Z,3.07
2023-01-25T13:08:57.215Z,3.07
2023-01-25T13:11:27.028Z,3.07
2023-01-25T13:13:54.744Z,2.70
2023-01-25T13:16:41.017Z,2.50
2023-01-25T13:19:20.435Z,2.90
2023-01-25T13:21:50.066Z,3.07
2023-01-25T13:24:25.116Z,3.13
2023-01-25T13:27:01.196Z,3.27
2023-01-25T13:29:56.021Z,3.50
2023-01-25T13:33:07.132Z,3.17
2023-01-25T13:35:37.615Z,3.20
2023-01-25T13:38:22.007Z,3.53
2023-01-25T13:41:05.118Z,3.33
2023-01-25T13:43:32.726Z,3.37
2023-01-25T13:46:00.408Z,3.27
2023-01-25T13:48:29.803Z,3.60
2023-01-25T13:51:00.339Z,4.00
2023-01-25T13:53:29.587Z,3.77
2023-01-25T13:55:58.659Z,4.13
2023-01-25T13:58:29.430Z,3.53
2023-01-25T14:00:58.758Z,3.90
2023-01-25T14:03:28.708Z,4.17
2023-01-25T14:05:58.314Z,3.83
2023-01-25T14:08:27.423Z,3.53
2023-01-25T14:10:55.776Z,3.97
2023-01-25T14:13:23.429Z,3.90
2023-01-25T14:16:00.417Z,4.20
2023-01-25T14:18:29.755Z,3.90
2023-01-25T14:21:12.805Z,3.53
2023-01-25T14:23:40.794Z,3.53
2023-01-25T14:26:20.432Z,4.17
2023-01-25T14:28:59.422Z,3.97
2023-01-25T14:31:34.002Z,3.50
2023-01-25T14:34:04.176Z,4.07
2023-01-25T14:36:34.350Z,3.80
2023-01-25T14:39:04.698Z,4.00
2023-01-25T14:41:33.985Z,4.00
2023-01-25T14:44:04.268Z,4.60
2023-01-25T14:46:34.905Z,4.17
2023-01-25T14:49:25.333Z,4.43
2023-01-25T14:51:57.670Z,4.27
2023-01-25T14:54:27.217Z,4.50
2023-01-25T14:56:56.292Z,5.10
2023-01-25T14:59:28.684Z,5.27
2023-01-25T15:02:00.371Z,5.00
2023-01-25T15:04:28.213Z,5.20
2023-01-25T15:06:59.187Z,4.87
2023-01-25T15:09:40.716Z,4.47
2023-01-25T15:12:27.891Z,4.57
2023-01-25T15:14:57.289Z,3.80
2023-01-25T15:17:44.130Z,4.33
2023-01-25T15:20:29.442Z,4.10
2023-01-25T15:22:58.029Z,4.27
2023-01-25T15:25:25.710Z,4.17
2023-01-25T15:27:54.644Z,4.00
2023-01-25T15:30:22.384Z,4.20
2023-01-25T15:32:51.589Z,4.00
2023-01-25T15:35:21.452Z,4.27
2023-01-25T15:37:49.736Z,3.97
2023-01-25T15:40:18.198Z,3.87
2023-01-25T15:42:45.905Z,3.50
2023-01-25T15:45:13.601Z,4.27
2023-01-25T15:47:41.273Z,3.93
2023-01-25T15:50:18.480Z,3.93
2023-01-25T15:52:46.165Z,4.00
2023-01-25T15:55:15.230Z,3.47
2023-01-25T15:57:44.178Z,4.40
2023-01-25T16:00:17.905Z,4.03
2023-01-25T16:02:45.592Z,3.43
2023-01-25T16:05:14.753Z,4.07
2023-01-25T16:07:44.318Z,3.50
2023-01-25T16:10:21.561Z,3.97
2023-01-25T16:12:49.649Z,3.60
2023-01-25T16:15:17.662Z,3.27
2023-01-25T16:17:45.479Z,3.47
2023-01-25T16:20:19.922Z,3.67
2023-01-25T16:22:48.005Z,4.70
2023-01-25T16:25:15.851Z,3.57
2023-01-25T16:27:43.509Z,4.00
2023-01-25T16:30:18.614Z,4.33
2023-01-25T16:32:46.713Z,4.43
2023-01-25T16:35:14.646Z,4.53
2023-01-25T16:37:43.735Z,4.50
2023-01-25T16:40:22.787Z,4.53
2023-01-25T16:42:50.580Z,4.97
2023-01-25T16:45:19.333Z,4.77
2023-01-25T16:47:47.471Z,5.10
2023-01-25T16:50:15.960Z,4.80
2023-01-25T16:52:46.088Z,5.00
2023-01-25T16:55:14.756Z,4.53
2023-01-25T16:57:43.708Z,4.80
2023-01-25T17:00:13.678Z,4.73
2023-01-25T17:02:53.412Z,5.20
2023-01-25T17:05:27.803Z,4.97
2023-01-25T17:07:56.910Z,5.07
2023-01-25T17:10:24.827Z,5.10
2023-01-25T17:12:52.520Z,5.00
2023-01-25T17:15:20.528Z,5.80
2023-01-25T17:17:48.202Z,5.50
2023-01-25T17:20:16.537Z,5.00
2023-01-25T17:22:49.550Z,6.38
2023-01-25T17:25:18.575Z,5.27
2023-01-25T17:27:46.414Z,5.07
2023-01-25T17:30:14.992Z,4.90
2023-01-25T17:32:42.646Z,4.60
2023-01-25T17:35:10.758Z,4.27
2023-01-25T17:37:41.030Z,4.50
2023-01-25T17:40:11.290Z,4.50
2023-01-25T17:42:40.637Z,4.83
2023-01-25T17:45:09.526Z,5.33
2023-01-25T17:47:37.424Z,5.67
2023-01-25T17:50:05.499Z,6.40
2023-01-25T17:52:33.140Z,8.20
2023-01-25T17:55:00.747Z,9.30
2023-01-25T17:57:31.243Z,10.20
2023-01-25T18:00:00.311Z,10.20
2023-01-25T18:02:28.094Z,9.93
2023-01-25T18:04:57.825Z,8.97
2023-01-25T18:07:25.557Z,7.37
2023-01-25T18:09:53.230Z,7.00
2023-01-25T18:12:21.009Z,6.43
2023-01-25T18:14:48.686Z,6.00
2023-01-25T18:17:17.839Z,5.63
2023-01-25T18:19:45.856Z,5.50
2023-01-25T18:22:13.964Z,6.10
2023-01-25T18:24:42.686Z,5.80
2023-01-25T18:27:18.838Z,6.20
2023-01-25T18:29:50.578Z,6.07
2023-01-25T18:32:19.578Z,6.43
2023-01-25T18:34:48.145Z,6.57
2023-01-25T18:37:23.291Z,6.10
2023-01-25T18:39:52.789Z,6.60
2023-01-25T18:42:21.036Z,6.27
2023-01-25T18:44:49.173Z,6.50
2023-01-25T18:47:18.842Z,6.70
2023-01-25T18:49:49.198Z,5.77
2023-01-25T18:52:18.118Z,6.07
2023-01-25T18:54:46.209Z,6.07
2023-01-25T18:57:14.840Z,6.10
2023-01-25T18:59:43.051Z,6.13
2023-01-25T19:02:11.661Z,5.97
2023-01-25T19:04:39.412Z,6.20
2023-01-25T19:07:08.717Z,6.17
2023-01-25T19:09:36.425Z,6.40
2023-01-25T19:12:04.173Z,5.77
2023-01-25T19:14:31.861Z,6.43
2023-01-25T19:16:59.570Z,6.57
2023-01-25T19:19:31.763Z,6.33
2023-01-25T19:21:59.506Z,6.37
2023-01-25T19:24:28.647Z,7.07
2023-01-25T19:26:56.345Z,6.93
2023-01-25T19:29:24.102Z,6.30
2023-01-25T19:31:51.920Z,6.77
2023-01-25T19:34:19.675Z,6.30
2023-01-25T19:36:50.023Z,6.23
2023-01-25T19:39:18.990Z,5.77
2023-01-25T19:41:48.134Z,5.70
2023-01-25T19:44:17.521Z,6.23
2023-01-25T19:46:45.239Z,6.03
2023-01-25T19:49:14.435Z,5.87
2023-01-25T19:51:48.777Z,6.20
2023-01-25T19:54:18.534Z,6.80
2023-01-25T19:56:49.382Z,6.93
2023-01-25T19:59:18.454Z,6.30
2023-01-25T20:01:47.423Z,6.53
2023-01-25T20:04:16.338Z,6.50
2023-01-25T20:06:44.300Z,5.93
2023-01-25T20:09:13.461Z,6.30
2023-01-25T20:11:41.336Z,6.47
2023-01-25T20:14:12.576Z,6.00
2023-01-25T20:16:40.444Z,6.73
2023-01-25T20:19:10.659Z,7.30
2023-01-25T20:21:39.598Z,7.37
2023-01-25T20:24:09.687Z,6.47
2023-01-25T20:26:39.687Z,7.17
2023-01-25T20:29:08.328Z,6.77
2023-01-25T20:31:38.318Z,7.27
2023-01-25T20:34:08.470Z,7.47
2023-01-25T20:36:36.465Z,7.30
2023-01-25T20:39:05.062Z,7.97
2023-01-25T20:41:32.847Z,7.13
2023-01-25T20:44:07.146Z,7.10
2023-01-25T20:46:38.649Z,6.87
2023-01-25T20:49:07.508Z,7.40
2023-01-25T20:51:35.221Z,8.37
2023-01-25T20:54:02.956Z,7.83
2023-01-25T20:56:31.730Z,8.87
2023-01-25T20:58:59.524Z,10.07
2023-01-25T21:01:29.605Z,11.50
2023-01-25T21:03:59.192Z,12.43
2023-01-25T21:06:28.408Z,10.43
2023-01-25T21:08:56.263Z,8.83
2023-01-25T21:11:24.081Z,8.53
2023-01-25T21:13:53.078Z,7.33
2023-01-25T21:16:22.422Z,7.30
2023-01-25T21:18:51.463Z,7.10
2023-01-25T21:21:22.045Z,6.80
2023-01-25T21:23:51.210Z,6.77
2023-01-25T21:26:20.747Z,6.43
2023-01-25T21:28:48.835Z,6.47
2023-01-25T21:31:18.843Z,6.37
2023-01-25T21:33:47.191Z,6.90
2023-01-25T21:36:15.608Z,6.10
2023-01-25T21:38:46.108Z,6.80
2023-01-25T21:41:15.163Z,6.03
2023-01-25T21:44:00.245Z,5.93
2023-01-25T21:46:28.961Z,5.93
2023-01-25T21:49:15.891Z,6.77
2023-01-25T21:51:49.446Z,7.00
2023-01-25T21:54:19.951Z,7.40
2023-01-25T21:56:48.859Z,7.03
2023-01-25T21:59:16.991Z,7.13
2023-01-25T22:01:45.100Z,7.77
2023-01-25T22:04:13.922Z,7.10
2023-01-25T22:06:41.747Z,6.87
2023-01-25T22:09:09.766Z,6.70
2023-01-25T22:11:38.793Z,6.03
2023-01-25T22:14:06.660Z,6.93
2023-01-25T22:16:34.303Z,6.57
2023-01-25T22:19:02.001Z,6.63
2023-01-25T22:21:32.101Z,6.50
2023-01-25T22:24:00.245Z,6.37
2023-01-25T22:26:31.458Z,5.93
2023-01-25T22:29:01.438Z,6.17
2023-01-25T22:31:30.466Z,4.80
2023-01-25T22:33:59.484Z,5.67
2023-01-25T22:36:28.856Z,5.73
2023-01-25T22:38:56.700Z,5.90
2023-01-25T22:41:26.001Z,5.77
2023-01-25T22:43:54.188Z,6.07
2023-01-25T22:46:25.390Z,5.90
2023-01-25T22:48:53.053Z,5.60
2023-01-25T22:51:25.065Z,5.80
2023-01-25T22:53:53.256Z,5.83
2023-01-25T22:56:22.561Z,5.80
2023-01-25T22:58:50.785Z,5.77
2023-01-25T23:01:20.653Z,5.40
2023-01-25T23:03:50.681Z,6.00
2023-01-25T23:06:19.764Z,5.53
2023-01-25T23:08:47.947Z,5.53
2023-01-25T23:11:16.631Z,5.50
2023-01-25T23:14:05.560Z,4.93
2023-01-25T23:16:37.241Z,5.50
2023-01-25T23:19:05.536Z,6.60
2023-01-25T23:21:33.279Z,6.33
2023-01-25T23:24:01.835Z,6.30
2023-01-25T23:26:30.247Z,6.73
2023-01-25T23:28:58.705Z,5.90
2023-01-25T23:31:26.723Z,6.93
2023-01-25T23:33:56.317Z,7.00
2023-01-25T23:36:26.565Z,7.13
2023-01-25T23:38:54.433Z,7.03
2023-01-25T23:41:23.360Z,7.07
2023-01-25T23:43:51.330Z,7.27
2023-01-25T23:46:19.687Z,7.77
2023-01-25T23:48:47.656Z,8.03
2023-01-25T23:51:16.923Z,9.20
2023-01-25T23:53:46.205Z,9.40
2023-01-25T23:56:15.815Z,9.93
2023-01-25T23:58:43.480Z,9.30
